Time;durP1;ratioP1;P1;durP2;ratioP2;P2;SDS_P1;SDS_P2;PMS_P1;PMS_P2;Temp;Humidity;BMP_temperature;BMP_pressure;BME280_temperature;BME280_humidity;BME280_pressure;Samples;Min_cycle;Max_cycle;Signal;HPM_P1;HPM_P2
2021/12/22 00:01:49;;;;;;;60.45;28.60;;;;;;;-0.19;75.63;96597.84;10282050;28;101000;-67
2021/12/22 00:06:52;;;;;;;58.77;30.37;;;;;;;-0.17;75.39;96590.91;10288045;28;97664;-67
2021/12/22 00:11:55;;;;;;;53.78;27.38;;;;;;;-0.14;75.61;96593.34;10284419;28;99368;-67
2021/12/22 00:17:03;;;;;;;53.15;27.75;;;;;;;-0.21;75.04;96594.53;10286038;28;96983;-67
2021/12/22 00:22:06;;;;;;;53.95;26.48;;;;;;;-0.24;75.54;96584.41;10282116;28;98698;-67
2021/12/22 00:27:09;;;;;;;47.30;25.10;;;;;;;-0.24;75.54;96576.69;10283091;28;97303;-67
2021/12/22 00:32:15;;;;;;;49.90;25.75;;;;;;;-0.23;75.46;96573.22;10286248;28;97124;-67
2021/12/22 00:37:20;;;;;;;52.45;26.77;;;;;;;-0.16;75.39;96572.03;10280014;28;96838;-67
2021/12/22 00:42:24;;;;;;;51.03;26.52;;;;;;;-0.14;76.00;96577.94;10281015;28;97165;-67
2021/12/22 00:47:30;;;;;;;50.15;25.90;;;;;;;-0.09;75.73;96575.97;10282201;28;96893;-67
2021/12/22 00:52:33;;;;;;;53.28;27.38;;;;;;;-0.05;75.78;96585.19;10284952;28;96837;-67
2021/12/22 00:57:38;;;;;;;52.58;27.45;;;;;;;-0.01;75.20;96589.28;10282015;28;96860;-67
2021/12/22 01:02:43;;;;;;;;;;;;;;;0.02;75.87;96591.69;10280583;28;97191;-67
2021/12/22 01:07:48;;;;;;;48.80;25.02;;;;;;;0.01;75.15;96587.47;10281361;28;97914;-67
2021/12/22 01:12:53;;;;;;;52.05;25.50;;;;;;;-0.06;75.54;96591.25;10279923;28;96947;-67
2021/12/22 01:18:02;;;;;;;51.15;26.23;;;;;;;-0.07;75.47;96594.69;10279184;28;97353;-67
2021/12/22 01:23:06;;;;;;;48.78;25.63;;;;;;;-0.01;75.58;96588.44;10294547;28;97225;-67
2021/12/22 01:28:09;;;;;;;51.78;26.98;;;;;;;0.03;75.27;96595.09;10295107;28;96897;-67
2021/12/22 01:33:15;;;;;;;51.88;25.88;;;;;;;0.09;75.41;96596.53;10299181;28;98641;-66
2021/12/22 01:38:17;;;;;;;46.05;24.38;;;;;;;0.10;75.41;96606.75;10282123;28;96800;-67
2021/12/22 01:43:20;;;;;;;48.35;25.15;;;;;;;0.07;75.91;96606.06;10292101;28;100415;-67
2021/12/22 01:54:06;;;;;;;50.33;28.05;;;;;;;-0.22;76.20;96613.41;10300156;28;96931;-67
2021/12/22 01:59:10;;;;;;;49.28;26.17;;;;;;;-0.26;76.23;96610.16;10291625;28;98741;-67
2021/12/22 02:04:15;;;;;;;46.83;25.40;;;;;;;-0.23;76.21;96610.00;10285649;28;98336;-67
2021/12/22 02:09:36;;;;;;;46.67;23.98;;;;;;;-0.12;76.15;96611.25;10295778;28;96777;-67
2021/12/22 02:14:40;;;;;;;47.30;24.85;;;;;;;-0.03;75.72;96624.47;10286577;28;96790;-67
2021/12/22 02:19:45;;;;;;;45.05;22.90;;;;;;;0.01;75.73;96617.44;10300941;28;99145;-67
2021/12/22 02:24:50;;;;;;;46.07;24.10;;;;;;;0.04;75.54;96617.28;10289831;28;99002;-67
2021/12/22 02:29:58;;;;;;;42.30;23.17;;;;;;;0.08;76.21;96615.41;10287085;28;96735;-67
2021/12/22 02:35:04;;;;;;;43.47;23.30;;;;;;;0.12;76.16;96620.34;10290192;28;96918;-66
2021/12/22 02:40:12;;;;;;;47.22;24.17;;;;;;;0.16;75.41;96616.69;10287376;28;97330;-66
2021/12/22 02:45:18;;;;;;;47.72;25.30;;;;;;;0.18;75.70;96614.06;10285793;28;97998;-66
2021/12/22 02:50:22;;;;;;;43.05;23.67;;;;;;;0.18;75.45;96612.31;10273568;28;96840;-66
2021/12/22 02:55:30;;;;;;;40.20;20.92;;;;;;;0.18;76.19;96619.19;10288810;28;97252;-67
2021/12/22 03:00:46;;;;;;;41.17;22.13;;;;;;;0.20;75.80;96617.38;10293925;28;96886;-67
2021/12/22 03:05:51;;;;;;;40.30;22.02;;;;;;;0.18;76.22;96619.19;10292289;28;96896;-67
2021/12/22 03:10:55;;;;;;;42.97;22.17;;;;;;;0.20;75.80;96618.22;10296007;28;96793;-67
2021/12/22 03:15:58;;;;;;;40.27;21.33;;;;;;;0.25;75.62;96628.25;10291058;28;96692;-67
2021/12/22 03:21:15;;;;;;;42.97;22.35;;;;;;;0.24;75.49;96619.72;10290132;28;96823;-67
2021/12/22 03:26:19;;;;;;;45.00;22.08;;;;;;;0.28;76.26;96614.44;10277237;28;96758;-66
2021/12/22 03:31:22;;;;;;;41.72;21.38;;;;;;;0.11;76.43;96613.53;10290902;28;96914;-67
2021/12/22 03:36:26;;;;;;;41.28;21.20;;;;;;;0.15;76.50;96614.19;10291902;28;97015;-67
2021/12/22 03:41:29;;;;;;;39.00;20.40;;;;;;;0.18;76.09;96608.91;10274489;28;98716;-67
2021/12/22 03:46:32;;;;;;;43.25;21.45;;;;;;;0.18;75.73;96608.91;10290187;28;96825;-67
2021/12/22 03:51:37;;;;;;;41.88;20.60;;;;;;;0.14;76.18;96617.69;10293711;28;96820;-67
2021/12/22 03:56:40;;;;;;;42.20;22.23;;;;;;;0.17;76.18;96622.69;10289156;28;100310;-67
2021/12/22 04:01:43;;;;;;;46.92;21.75;;;;;;;0.02;76.38;96625.06;10290385;28;96866;-67
2021/12/22 04:06:50;;;;;;;42.40;21.58;;;;;;;-0.03;76.30;96614.19;10293076;28;97086;-67
2021/12/22 04:11:54;;;;;;;39.53;19.98;;;;;;;-0.01;76.40;96616.69;10275722;28;96772;-67
2021/12/22 04:16:57;;;;;;;45.88;22.55;;;;;;;0.03;75.90;96616.47;10292341;28;98611;-67
2021/12/22 04:22:02;;;;;;;41.38;20.35;;;;;;;0.13;75.79;96616.84;10283305;28;98982;-66
2021/12/22 04:27:05;;;;;;;39.72;20.15;;;;;;;0.19;75.92;96623.44;10282951;28;96974;-66
2021/12/22 04:32:08;;;;;;;36.42;19.25;;;;;;;0.19;75.66;96623.44;10285998;28;98649;-67
2021/12/22 04:37:12;;;;;;;39.55;19.13;;;;;;;0.23;75.89;96617.22;10285605;28;97115;-67
2021/12/22 04:42:16;;;;;;;43.25;21.63;;;;;;;0.25;76.46;96620.56;10283657;28;97980;-67
2021/12/22 04:47:19;;;;;;;43.75;21.58;;;;;;;0.24;76.30;96626.63;10270248;28;97278;-67
2021/12/22 04:52:25;;;;;;;44.03;22.38;;;;;;;0.29;75.61;96626.38;10284957;28;97928;-67
2021/12/22 04:57:29;;;;;;;42.90;20.63;;;;;;;0.29;75.67;96626.38;10279912;28;96935;-66
2021/12/22 05:02:31;;;;;;;43.72;22.02;;;;;;;0.30;76.48;96625.47;10293492;28;96819;-66
2021/12/22 05:07:36;;;;;;;41.90;19.70;;;;;;;0.31;76.21;96620.28;10302169;28;97961;-66
2021/12/22 05:12:39;;;;;;;42.47;20.55;;;;;;;0.35;76.25;96621.78;10296158;28;97479;-66
2021/12/22 05:18:13;;;;;;;40.53;20.15;;;;;;;0.35;75.98;96639.75;10291789;28;96965;-67
2021/12/22 05:23:18;;;;;;;43.63;21.05;;;;;;;0.35;75.59;96644.91;10295459;28;96718;-67
2021/12/22 05:28:21;;;;;;;39.45;19.55;;;;;;;0.32;75.99;96637.34;10295784;28;96808;-67
2021/12/22 05:33:24;;;;;;;39.67;19.30;;;;;;;0.33;75.66;96638.19;10295933;28;96855;-66
2021/12/22 05:38:28;;;;;;;40.60;20.80;;;;;;;0.30;75.96;96634.00;10292557;28;97025;-67
2021/12/22 05:43:31;;;;;;;41.67;19.60;;;;;;;0.31;76.20;96633.13;10303180;28;97437;-67
2021/12/22 05:48:34;;;;;;;36.20;19.27;;;;;;;0.32;75.87;96637.34;10286228;28;97289;-66
2021/12/22 05:53:38;;;;;;;38.17;18.02;;;;;;;0.34;76.06;96634.69;10287219;28;96826;-67
2021/12/22 05:58:41;;;;;;;40.20;19.77;;;;;;;0.24;76.12;96635.16;10291176;28;96856;-67
2021/12/22 06:03:44;;;;;;;41.15;20.48;;;;;;;0.25;75.96;96630.84;10284751;28;96899;-66
2021/12/22 06:08:48;;;;;;;38.75;19.10;;;;;;;0.15;75.93;96647.59;10301405;28;98846;-66
2021/12/22 06:13:51;;;;;;;42.13;20.00;;;;;;;0.18;75.99;96644.88;10293811;28;100025;-66
2021/12/22 06:18:57;;;;;;;41.60;19.55;;;;;;;0.17;75.71;96638.09;10295484;28;96825;-67
2021/12/22 06:24:02;;;;;;;42.00;21.33;;;;;;;0.13;76.26;96642.53;10289071;28;97752;-66
2021/12/22 06:29:05;;;;;;;51.07;22.13;;;;;;;0.09;76.27;96640.19;10297039;28;96999;-66
2021/12/22 06:34:08;;;;;;;42.83;20.63;;;;;;;0.05;76.06;96640.34;10291023;28;96880;-66
2021/12/22 06:39:12;;;;;;;42.50;23.65;;;;;;;0.08;76.18;96639.38;10287297;28;100468;-66
2021/12/22 06:44:16;;;;;;;43.60;23.58;;;;;;;0.13;75.96;96641.72;10290631;28;96770;-66
2021/12/22 06:49:19;;;;;;;46.47;22.98;;;;;;;0.20;75.57;96637.94;10283534;28;96896;-66
2021/12/22 06:54:23;;;;;;;49.60;24.88;;;;;;;0.22;75.41;96651.56;10285778;28;97487;-66
2021/12/22 06:59:26;;;;;;;42.00;21.85;;;;;;;0.18;75.40;96650.84;10288244;28;99259;-66
2021/12/22 07:04:29;;;;;;;42.97;22.13;;;;;;;0.19;75.75;96652.53;10284388;28;98570;-66
2021/12/22 07:09:33;;;;;;;43.05;22.90;;;;;;;0.20;75.51;96650.78;10284580;28;97554;-67
2021/12/22 07:14:36;;;;;;;45.17;23.27;;;;;;;0.19;75.80;96662.81;10289493;28;96999;-67
2021/12/22 07:19:39;;;;;;;42.35;22.52;;;;;;;0.07;75.98;96667.72;10293044;28;101988;-67
2021/12/22 07:24:43;;;;;;;39.63;21.63;;;;;;;-0.10;76.06;96664.19;10289014;28;96911;-66
2021/12/22 07:29:46;;;;;;;38.95;21.45;;;;;;;-0.21;75.89;96669.00;10288908;28;96907;-66
2021/12/22 07:34:57;;;;;;;44.53;22.45;;;;;;;-0.29;76.45;96683.91;10292314;28;96892;-67
2021/12/22 07:40:01;;;;;;;44.65;23.40;;;;;;;-0.19;76.24;96682.59;10290618;28;102339;-66
2021/12/22 07:45:05;;;;;;;38.03;20.98;;;;;;;-0.07;76.09;96688.91;10290771;28;96846;-66
2021/12/22 07:50:09;;;;;;;42.67;21.87;;;;;;;-0.01;76.04;96684.31;10296003;28;96893;-66
2021/12/22 07:55:13;;;;;;;43.55;22.42;;;;;;;0.08;75.18;96684.75;10293363;28;97098;-65
2021/12/22 08:00:17;;;;;;;42.67;21.88;;;;;;;0.02;76.08;96694.44;10288807;28;99023;-66
2021/12/22 08:05:20;;;;;;;45.30;23.65;;;;;;;0.09;75.69;96691.59;10292230;28;98492;-67
2021/12/22 08:10:24;;;;;;;44.78;22.90;;;;;;;0.17;75.33;96689.50;10293692;28;96781;-66
2021/12/22 08:15:30;;;;;;;41.25;22.90;;;;;;;0.12;75.73;96691.44;10305200;28;96912;-66
2021/12/22 08:20:33;;;;;;;45.05;24.42;;;;;;;0.18;76.24;96696.28;10287297;28;97433;-67
2021/12/22 08:25:38;;;;;;;45.00;22.80;;;;;;;0.26;75.35;96703.63;10290888;28;97785;-66
2021/12/22 08:30:42;;;;;;;43.08;22.33;;;;;;;0.31;75.21;96710.22;10285671;28;96913;-66
2021/12/22 08:41:03;;;;;;;45.92;22.63;;;;;;;0.29;75.28;96724.03;10283471;28;98587;-66
2021/12/22 08:46:06;;;;;;;40.15;21.90;;;;;;;0.26;75.72;96712.16;10286957;28;100692;-66
2021/12/22 08:51:09;;;;;;;41.47;21.85;;;;;;;0.11;75.71;96720.59;10287249;28;98138;-66
2021/12/22 08:56:13;;;;;;;37.95;21.25;;;;;;;0.19;75.58;96719.34;10288472;28;96937;-66
2021/12/22 09:01:17;;;;;;;46.15;21.52;;;;;;;0.23;75.10;96720.00;10284960;28;98996;-66
2021/12/22 09:06:20;;;;;;;44.00;22.80;;;;;;;0.31;75.23;96717.09;10284809;28;96939;-65
2021/12/22 09:11:25;;;;;;;38.30;19.95;;;;;;;0.34;74.82;96722.94;10290006;28;96958;-66
2021/12/22 09:16:28;;;;;;;;;;;;;;;0.38;75.51;96737.28;10288150;28;97251;-66
2021/12/22 09:21:36;;;;;;;38.67;21.05;;;;;;;0.45;75.12;96739.56;10293115;28;98855;-66
2021/12/22 09:26:41;;;;;;;35.65;18.98;;;;;;;0.47;74.87;96753.19;10297397;28;97181;-66
2021/12/22 09:31:44;;;;;;;37.95;19.95;;;;;;;0.53;74.89;96752.88;10297603;28;97185;-66
2021/12/22 09:36:47;;;;;;;41.85;22.60;;;;;;;0.58;74.70;96756.06;10284846;28;96908;-66
2021/12/22 09:41:52;;;;;;;40.60;21.00;;;;;;;0.66;74.53;96756.53;10290630;28;97569;-66
2021/12/22 09:46:55;;;;;;;38.63;20.23;;;;;;;0.69;74.51;96755.53;10310276;28;99832;-66
2021/12/22 09:57:22;;;;;;;37.20;19.40;;;;;;;0.59;74.60;96760.31;10295696;28;98931;-65
2021/12/22 10:02:29;;;;;;;41.28;21.27;;;;;;;0.66;74.50;96753.13;10287090;28;98815;-66
2021/12/22 10:07:37;;;;;;;38.72;20.23;;;;;;;0.74;74.35;96757.00;10298181;28;99865;-66
2021/12/22 10:12:44;;;;;;;38.90;20.50;;;;;;;0.79;74.27;96749.88;10296965;28;99772;-66
2021/12/22 10:17:47;;;;;;;37.45;20.38;;;;;;;0.79;73.93;96757.59;10288217;28;96901;-66
2021/12/22 10:22:52;;;;;;;39.15;20.65;;;;;;;0.80;73.92;96741.25;10294387;28;99188;-67
2021/12/22 10:28:01;;;;;;;38.65;21.35;;;;;;;0.83;73.66;96736.84;10294898;28;97143;-66
2021/12/22 10:33:13;;;;;;;41.22;21.70;;;;;;;0.75;73.45;96738.06;10284675;28;98780;-65
2021/12/22 10:38:19;;;;;;;37.13;19.65;;;;;;;0.62;73.52;96737.03;10287823;28;98662;-66
2021/12/22 10:43:25;;;;;;;34.25;18.63;;;;;;;0.57;73.25;96731.28;10296624;28;98582;-66
2021/12/22 10:53:53;;;;;;;33.42;17.27;;;;;;;0.48;73.50;96711.13;10291319;28;96828;-66
2021/12/22 10:59:06;;;;;;;34.65;18.73;;;;;;;0.65;73.30;96711.13;10296783;28;97051;-66
2021/12/22 11:04:18;;;;;;;39.97;20.17;;;;;;;0.75;72.86;96703.81;10286570;28;97302;-66
2021/12/22 11:09:22;;;;;;;42.42;21.17;;;;;;;0.79;72.54;96698.44;10285747;28;96931;-65
2021/12/22 11:14:28;;;;;;;36.00;18.83;;;;;;;0.85;73.06;96696.47;10286079;28;102623;-66
2021/12/22 11:19:33;;;;;;;35.75;18.92;;;;;;;0.92;72.73;96693.50;10305289;28;98246;-66
2021/12/22 11:24:37;;;;;;;;;;;;;;;0.99;72.60;96688.91;10307591;28;96780;-66
2021/12/22 11:29:45;;;;;;;33.40;19.23;;;;;;;0.96;72.99;96679.56;10286634;28;97114;-66
2021/12/22 11:34:51;;;;;;;38.55;20.83;;;;;;;0.95;72.79;96677.94;10295272;28;97375;-66
2021/12/22 11:39:55;;;;;;;35.22;18.52;;;;;;;0.98;72.61;96671.78;10279755;28;96781;-65
2021/12/22 11:45:04;;;;;;;39.92;19.75;;;;;;;1.03;72.45;96664.66;10286399;28;98741;-65
2021/12/22 11:50:14;;;;;;;35.83;20.40;;;;;;;0.85;72.97;96665.63;10299703;28;96847;-65
2021/12/22 11:55:18;;;;;;;38.75;19.48;;;;;;;0.61;72.80;96669.31;10293491;28;96837;-65
2021/12/22 12:00:31;;;;;;;35.93;20.17;;;;;;;0.58;73.40;96654.06;10294480;28;101366;-66
2021/12/22 12:05:34;;;;;;;39.50;19.73;;;;;;;0.69;72.79;96653.53;10292984;28;98511;-66
2021/12/22 12:10:43;;;;;;;38.88;20.02;;;;;;;0.71;72.32;96644.00;10286887;28;97369;-65
2021/12/22 12:22:00;;;;;;;33.30;18.20;;;;;;;0.31;72.17;96640.00;10288352;28;97008;-66
2021/12/22 12:27:40;;;;;;;36.17;18.73;;;;;;;0.24;73.14;96635.16;10237850;28;97202;-66
2021/12/22 12:33:02;;;;;;;37.83;19.30;;;;;;;0.52;72.38;96635.53;10236655;28;97077;-65
2021/12/22 12:38:12;;;;;;;35.67;19.08;;;;;;;0.60;72.25;96635.97;10238077;28;96967;-65
2021/12/22 12:43:15;;;;;;;40.50;19.42;;;;;;;0.57;72.01;96641.28;10237942;28;96863;-65
2021/12/22 12:48:30;;;;;;;36.25;18.52;;;;;;;0.70;72.06;96621.75;10235816;28;97781;-66
2021/12/22 12:53:39;;;;;;;34.80;18.15;;;;;;;0.61;71.47;96627.34;10225527;28;98602;-67
2021/12/22 12:58:52;;;;;;;40.03;19.58;;;;;;;0.50;72.37;96620.19;10241629;28;97564;-67
2021/12/22 13:03:56;;;;;;;39.60;19.30;;;;;;;0.45;71.87;96622.16;10282065;28;96818;-67
2021/12/22 13:08:59;;;;;;;40.13;19.10;;;;;;;0.54;72.09;96626.00;10279628;28;96736;-66
2021/12/22 13:19:41;;;;;;;37.08;18.20;;;;;;;0.92;71.67;96626.63;10168241;28;97316;-67
2021/12/22 13:24:44;;;;;;;37.70;19.67;;;;;;;1.05;71.31;96619.09;10168243;28;97040;-67
2021/12/22 13:30:07;;;;;;;40.83;19.83;;;;;;;1.16;71.53;96613.41;10167688;28;97189;-66
2021/12/22 13:35:11;;;;;;;37.15;19.15;;;;;;;1.24;71.36;96610.41;10175924;28;98623;-67
2021/12/22 13:40:33;;;;;;;38.50;19.90;;;;;;;1.25;70.91;96622.38;10165225;28;97027;-67
2021/12/22 13:45:36;;;;;;;38.35;20.38;;;;;;;1.26;71.17;96617.16;10170969;28;100674;-67
2021/12/22 13:50:42;;;;;;;36.35;19.42;;;;;;;1.28;71.28;96601.63;10174815;28;98058;-67
2021/12/22 13:55:46;;;;;;;38.88;19.67;;;;;;;1.31;70.78;96606.59;10245113;28;96910;-67
2021/12/22 14:00:49;;;;;;;38.55;19.40;;;;;;;1.33;70.63;96603.06;10293895;28;98064;-65
2021/12/22 14:06:06;;;;;;;37.65;19.05;;;;;;;1.23;71.42;96603.63;10290098;28;97696;-64
2021/12/22 14:11:32;;;;;;;35.92;18.20;;;;;;;1.25;70.37;96596.66;10294195;28;96910;-64
2021/12/22 14:16:34;;;;;;;36.30;18.77;;;;;;;1.14;70.60;96599.78;10291466;28;99410;-63
2021/12/22 14:21:39;;;;;;;38.83;18.92;;;;;;;1.13;71.74;96603.28;10290675;28;97142;-63
2021/12/22 14:26:49;;;;;;;34.78;17.30;;;;;;;1.14;70.72;96604.91;10291528;28;97447;-64
2021/12/22 14:31:56;;;;;;;39.25;19.23;;;;;;;1.13;70.40;96605.84;10286841;28;97254;-64
2021/12/22 14:37:01;;;;;;;40.58;20.38;;;;;;;1.09;70.59;96610.31;10287871;28;98621;-64
2021/12/22 14:42:19;;;;;;;40.10;20.20;;;;;;;0.98;70.88;96622.91;10289938;28;98288;-64
2021/12/22 14:47:23;;;;;;;41.17;20.90;;;;;;;0.82;70.80;96615.16;10285579;28;97698;-64
2021/12/22 14:52:30;;;;;;;40.07;20.30;;;;;;;0.71;71.13;96610.56;10291487;28;98419;-63
2021/12/22 14:57:33;;;;;;;38.50;19.52;;;;;;;0.72;71.18;96609.66;10285067;28;101014;-64
2021/12/22 15:02:36;;;;;;;38.40;18.90;;;;;;;0.76;70.59;96618.88;10288679;28;97827;-64
2021/12/22 15:07:40;;;;;;;43.05;19.35;;;;;;;0.76;70.98;96606.00;10292728;28;98378;-64
2021/12/22 15:12:43;;;;;;;38.80;21.23;;;;;;;0.66;70.91;96602.25;10284381;28;98824;-64
2021/12/22 15:17:46;;;;;;;43.15;20.27;;;;;;;0.63;70.92;96602.41;10286219;28;97418;-64
2021/12/22 15:22:50;;;;;;;40.72;20.95;;;;;;;0.63;70.82;96610.09;10291981;28;96966;-64
2021/12/22 15:27:53;;;;;;;41.22;19.30;;;;;;;0.60;70.84;96615.41;10287264;28;97140;-64
2021/12/22 15:32:55;;;;;;;36.90;19.15;;;;;;;0.56;70.56;96619.03;10284546;28;96915;-64
2021/12/22 15:38:00;;;;;;;39.95;19.85;;;;;;;0.56;70.96;96626.75;10288474;28;98226;-64
2021/12/22 15:43:03;;;;;;;40.95;20.95;;;;;;;0.53;70.55;96629.47;10283502;28;97056;-65
2021/12/22 15:48:06;;;;;;;37.88;19.42;;;;;;;0.48;70.66;96631.44;10285735;28;104280;-63
2021/12/22 15:53:11;;;;;;;43.10;21.58;;;;;;;0.39;71.38;96636.16;10287094;28;97005;-64
2021/12/22 15:58:13;;;;;;;41.85;19.25;;;;;;;0.39;71.28;96641.28;10292325;28;97313;-63
2021/12/22 16:03:17;;;;;;;39.63;19.42;;;;;;;0.43;71.03;96637.66;10288068;28;96794;-64
2021/12/22 16:08:21;;;;;;;38.22;18.92;;;;;;;0.39;70.71;96636.16;10302630;28;97217;-64
2021/12/22 16:13:24;;;;;;;41.45;21.77;;;;;;;0.31;71.33;96640.81;10283683;28;96759;-64
2021/12/22 16:18:28;;;;;;;42.80;20.17;;;;;;;0.32;71.38;96637.34;10282973;28;96932;-64
2021/12/22 16:23:32;;;;;;;43.10;19.97;;;;;;;0.29;71.22;96637.50;10284274;28;97205;-64
2021/12/22 16:28:40;;;;;;;40.55;20.33;;;;;;;0.22;71.28;96646.44;10286501;28;97268;-64
2021/12/22 16:33:43;;;;;;;42.13;20.38;;;;;;;0.16;71.57;96639.81;10287820;28;97141;-64
2021/12/22 16:38:49;;;;;;;41.75;20.42;;;;;;;0.18;71.55;96634.63;10293829;28;97957;-64
2021/12/22 16:43:52;;;;;;;41.67;20.33;;;;;;;0.15;71.56;96627.03;10282375;28;99093;-64
2021/12/22 16:48:54;;;;;;;48.25;21.20;;;;;;;0.12;72.03;96640.06;10281237;28;96865;-64
2021/12/22 16:53:59;;;;;;;40.97;20.75;;;;;;;0.11;71.33;96639.22;10283031;28;97141;-64
2021/12/22 16:59:02;;;;;;;42.28;21.17;;;;;;;0.05;71.19;96640.34;10286877;28;96957;-64
2021/12/22 17:04:05;;;;;;;42.53;20.58;;;;;;;-0.06;71.16;96640.03;10278875;28;97183;-64
2021/12/22 17:09:10;;;;;;;40.88;21.13;;;;;;;-0.11;71.96;96644.56;10281540;28;100824;-64
2021/12/22 17:14:13;;;;;;;40.20;19.93;;;;;;;-0.09;71.72;96644.47;10291495;28;98523;-64
2021/12/22 17:19:16;;;;;;;45.00;22.23;;;;;;;-0.13;71.81;96646.34;10291529;28;97973;-64
2021/12/22 17:24:20;;;;;;;41.50;21.10;;;;;;;-0.16;71.98;96651.66;10285045;28;97740;-64
2021/12/22 17:29:23;;;;;;;39.95;21.48;;;;;;;-0.19;71.62;96646.66;10275251;28;97161;-64
2021/12/22 17:34:26;;;;;;;38.67;19.65;;;;;;;-0.20;71.67;96644.97;10290137;28;97167;-64
2021/12/22 17:39:30;;;;;;;41.10;21.80;;;;;;;-0.29;72.03;96650.53;10282566;28;96926;-63
2021/12/22 17:44:39;;;;;;;42.03;21.58;;;;;;;-0.39;71.84;96653.53;10280755;28;99070;-64
2021/12/22 17:49:42;;;;;;;42.47;20.80;;;;;;;-0.56;72.57;96656.88;10285699;28;99037;-64
2021/12/22 17:54:46;;;;;;;38.47;19.13;;;;;;;-0.60;71.75;96654.50;10281187;28;96834;-64
2021/12/22 17:59:49;;;;;;;40.10;19.85;;;;;;;-0.60;71.71;96647.63;10283418;28;97861;-64
2021/12/22 18:04:55;;;;;;;40.58;21.27;;;;;;;-0.75;72.33;96641.47;10291029;28;97536;-64
2021/12/22 18:10:00;;;;;;;41.30;21.50;;;;;;;-0.84;73.16;96631.63;10288603;28;97634;-64
2021/12/22 18:15:03;;;;;;;42.28;21.63;;;;;;;-0.86;73.32;96635.97;10296973;28;100465;-64
2021/12/22 18:20:07;;;;;;;43.15;21.13;;;;;;;-0.87;72.65;96631.75;10295617;28;98640;-64
2021/12/22 18:25:13;;;;;;;42.53;20.45;;;;;;;-0.88;72.46;96632.66;10299153;28;96980;-64
2021/12/22 18:30:17;;;;;;;46.08;22.80;;;;;;;-0.92;72.78;96641.38;10294508;28;96839;-64
2021/12/22 18:35:21;;;;;;;46.42;22.35;;;;;;;-0.95;72.97;96646.63;10291119;28;96833;-63
2021/12/22 18:40:35;;;;;;;40.28;21.60;;;;;;;-0.96;73.42;96640.69;10291873;28;97099;-64
2021/12/22 18:45:40;;;;;;;39.25;21.05;;;;;;;-1.09;73.53;96639.56;10290506;28;99244;-64
2021/12/22 18:50:44;;;;;;;;;;;;;;;-1.11;73.22;96637.03;10272949;28;98849;-64
2021/12/22 18:55:49;;;;;;;39.50;21.00;;;;;;;-1.15;73.11;96637.28;10286143;28;96857;-64
2021/12/22 19:00:54;;;;;;;39.33;19.50;;;;;;;-1.27;73.92;96636.06;10285084;28;96910;-64
2021/12/22 19:05:58;;;;;;;41.05;20.42;;;;;;;-1.31;74.29;96634.50;10285310;28;96932;-64
2021/12/22 19:11:03;;;;;;;39.65;20.90;;;;;;;-1.28;73.22;96636.94;10289054;28;97568;-64
2021/12/22 19:16:06;;;;;;;;;;;;;;;-1.25;73.26;96644.50;10284866;28;96948;-64
2021/12/22 19:21:10;;;;;;;36.08;19.20;;;;;;;-1.24;72.92;96640.22;10284917;28;96955;-64
2021/12/22 19:26:15;;;;;;;40.37;22.33;;;;;;;-1.15;73.21;96639.84;10285105;28;97017;-64
2021/12/22 19:31:18;;;;;;;43.50;21.83;;;;;;;-1.09;73.59;96639.56;10286615;28;96899;-64
2021/12/22 19:36:21;;;;;;;40.20;21.50;;;;;;;-1.22;73.13;96638.41;10284653;28;96720;-64
2021/12/22 19:41:26;;;;;;;41.25;21.55;;;;;;;-1.30;73.74;96651.56;10286706;28;97327;-64
2021/12/22 19:46:29;;;;;;;44.67;23.97;;;;;;;-1.37;73.52;96639.91;10286386;28;96873;-64
2021/12/22 19:51:32;;;;;;;47.35;22.98;;;;;;;-1.41;74.06;96633.22;10284608;28;96799;-64
2021/12/22 19:56:36;;;;;;;45.85;24.10;;;;;;;-1.53;74.81;96645.66;10281305;28;97403;-64
2021/12/22 20:01:41;;;;;;;41.42;20.88;;;;;;;-1.59;74.11;96647.66;10307005;28;97047;-64
2021/12/22 20:06:44;;;;;;;;;;;;;;;-1.71;74.16;96631.03;10295756;28;96856;-64
2021/12/22 20:11:49;;;;;;;44.55;22.70;;;;;;;-1.72;74.43;96624.28;10290757;28;96909;-64
2021/12/22 20:16:56;;;;;;;50.17;23.58;;;;;;;-1.72;74.08;96629.41;10279157;28;97457;-64
2021/12/22 20:21:59;;;;;;;46.80;21.70;;;;;;;-1.74;74.35;96620.91;10289616;28;97492;-63
2021/12/22 20:27:04;;;;;;;43.40;21.00;;;;;;;-1.82;74.06;96612.75;10290673;28;98936;-64
2021/12/22 20:32:08;;;;;;;44.13;21.08;;;;;;;-1.80;74.63;96613.50;10294275;28;97437;-63
2021/12/22 20:37:11;;;;;;;45.80;20.92;;;;;;;-1.76;75.21;96620.16;10285429;28;98932;-64
2021/12/22 20:42:15;;;;;;;44.97;21.55;;;;;;;-1.66;74.99;96618.88;10283600;28;98858;-64
2021/12/22 20:47:19;;;;;;;43.67;21.90;;;;;;;-1.70;74.84;96617.34;10296988;28;97956;-64
2021/12/22 20:52:22;;;;;;;42.80;20.90;;;;;;;-1.82;75.59;96613.56;10291234;28;96881;-64
2021/12/22 20:57:26;;;;;;;42.70;20.88;;;;;;;-1.76;74.53;96612.47;10286807;28;97606;-64
2021/12/22 21:02:29;;;;;;;43.28;20.80;;;;;;;-1.70;74.99;96602.81;10277864;28;97505;-64
2021/12/22 21:07:33;;;;;;;44.70;21.35;;;;;;;-1.74;74.99;96600.44;10289658;28;97291;-64
2021/12/22 21:12:38;;;;;;;45.88;22.00;;;;;;;-1.72;74.76;96594.38;10297936;28;98785;-64
2021/12/22 21:17:41;;;;;;;41.83;21.38;;;;;;;-1.70;74.62;96589.19;10288671;28;97668;-64
2021/12/22 21:22:45;;;;;;;52.97;25.38;;;;;;;-1.69;74.58;96583.16;10285651;28;97522;-64
2021/12/22 21:27:51;;;;;;;47.40;23.63;;;;;;;-1.74;74.63;96580.78;10290097;28;101189;-64
2021/12/22 21:32:56;;;;;;;49.60;24.17;;;;;;;-1.81;75.12;96573.41;10290815;28;97622;-64
2021/12/22 21:37:59;;;;;;;49.53;23.43;;;;;;;-1.90;75.50;96566.94;10286660;28;97634;-64
2021/12/22 21:43:03;;;;;;;47.92;22.67;;;;;;;-1.98;75.40;96562.16;10287988;28;96863;-64
2021/12/22 21:48:07;;;;;;;46.20;24.07;;;;;;;-1.97;76.14;96563.81;10294099;28;96933;-64
2021/12/22 21:53:10;;;;;;;50.00;24.80;;;;;;;-1.97;74.98;96562.97;10290274;28;96941;-64
2021/12/22 21:58:14;;;;;;;53.60;25.20;;;;;;;-2.01;75.22;96562.28;10286564;28;98953;-64
2021/12/22 22:03:17;;;;;;;50.85;24.65;;;;;;;-2.06;75.79;96559.06;10290774;28;98035;-64
2021/12/22 22:08:20;;;;;;;44.85;21.60;;;;;;;-2.12;76.13;96559.34;10293204;28;96897;-64
2021/12/22 22:13:24;;;;;;;52.17;24.52;;;;;;;-2.10;75.90;96557.53;10306469;28;97088;-64
2021/12/22 22:18:27;;;;;;;52.28;24.10;;;;;;;-2.14;75.19;96548.31;10298931;28;96838;-64
2021/12/22 22:23:30;;;;;;;46.45;22.42;;;;;;;-2.11;75.60;96555.84;10287941;28;97202;-64
2021/12/22 22:28:34;;;;;;;52.30;24.45;;;;;;;-2.10;75.93;96560.09;10302005;28;97023;-63
2021/12/22 22:33:37;;;;;;;52.77;25.30;;;;;;;-2.07;76.21;96554.88;10290214;28;97805;-64
2021/12/22 22:38:40;;;;;;;51.00;24.10;;;;;;;-2.09;75.07;96565.16;10284374;28;97277;-64
2021/12/22 22:43:47;;;;;;;60.00;25.80;;;;;;;-2.14;76.34;96561.09;10290541;28;96846;-64
2021/12/22 22:48:55;;;;;;;54.28;23.90;;;;;;;-2.17;76.57;96554.41;10294727;28;99234;-64
2021/12/22 22:53:58;;;;;;;53.90;25.67;;;;;;;-2.22;75.24;96564.81;10286642;28;96725;-64
2021/12/22 22:59:02;;;;;;;57.83;25.65;;;;;;;-2.27;76.26;96571.84;10294153;28;96818;-64
2021/12/22 23:04:25;;;;;;;51.33;24.98;;;;;;;-2.24;75.43;96568.34;10288879;28;96905;-64
2021/12/22 23:09:28;;;;;;;52.83;25.50;;;;;;;-2.23;75.15;96550.38;10285581;28;96953;-64
2021/12/22 23:14:33;;;;;;;55.53;26.23;;;;;;;-2.27;76.07;96556.47;10286550;28;96953;-64
2021/12/22 23:19:36;;;;;;;58.25;26.17;;;;;;;-2.27;75.76;96561.59;10285973;28;97976;-64
2021/12/22 23:24:39;;;;;;;57.40;25.23;;;;;;;-2.25;76.50;96564.09;10291920;28;96894;-64
2021/12/22 23:29:43;;;;;;;56.08;25.80;;;;;;;-2.26;76.45;96559.91;10284735;28;97092;-64
2021/12/22 23:34:46;;;;;;;52.92;25.25;;;;;;;-2.26;75.45;96547.91;10292217;28;96896;-64
2021/12/22 23:39:57;;;;;;;57.13;26.42;;;;;;;-2.24;76.00;96550.41;10283425;28;96983;-64
2021/12/22 23:45:17;;;;;;;56.70;25.10;;;;;;;-2.24;75.95;96548.69;10282313;28;99013;-64
2021/12/22 23:50:20;;;;;;;53.25;24.40;;;;;;;-2.33;75.83;96551.63;10287884;28;96947;-64